LEAS/OVD METAR and TAF weather

Enter ICAO airport designator
Station Type Date Time Source
LEAS METAR 2018/12/15 04:00 UTC NOAA

LEAS 150400Z AUTO 24009KT 9999 SCT058 BKN068 BKN080 16/11 Q1017


Station Type Date Time Source
LEAS Decoded METAR 2018/12/15 04:00 UTC NOAA

Asturias / Aviles, Spain (LEAS) 43-33N 006-02W 130M
Dec 14, 2018 - 11:00 PM EST / 2018.12.15 0400 UTC
Wind: from the WSW (240 degrees) at 10 MPH (9 KT):0
Visibility: greater than 7 mile(s):0
Sky conditions: mostly cloudy
Temperature: 60 F (16 C)
Dew Point: 51 F (11 C)
Relative Humidity: 72%
Pressure (altimeter): 30.03 in. Hg (1017 hPa)
ob: LEAS 150400Z AUTO 24009KT 9999 SCT058 BKN068 BKN080 16/11 Q1017
cycle: 4

Station Type Date Time Source
LEAS TAF 2018/12/15 03:27 UTC NOAA

TAF LEAS 150200Z 1503/1603 23009KT 9999 BKN040 TX19/1514Z TN10/1503Z
TEMPO 1515/1521 29015G30KT
TEMPO 1503/1506 RA
TEMPO 1515/1521 3000 RA BKN010 BKN014


Example: see airport list